Tiempo atmosférico en la estación meteorológica de Las Cabezas de San Juan, Sevilla (105 m.)



Fecha
DESCASC
Temp. máxima en grados centígrados (hora)
DESCASC
Temp. mínima en grados centígrados (hora)
DESCASC
Temp. media en grados centígrados
DESCASC
Racha de viento máxima en m/sg (hora)
DESCASC
Velocidad máxima media en intervalos de 10 minutos(hora)
DESCASC
Precipitaciones diarias en mm
DESCASC
Precipitaciones de 00:00 a 06:00 en mm
DESCASC
Precipitaciones de 06:00 a 12:00 en mm
DESCASC
Precipitaciones de 12:00 a 18:00 en mm
DESCASC
Precipitaciones de 18:00 a 24:00 en mm
DESCASC
16-04-2019 27.2 (18:00) 11.8 (05:10) 19.5 9.72 (16:50) 5.28 (21:40) 0 0 0 0 0
15-04-2019 25.7 (16:20) 12.7 (07:10) 19.2 8.89 (15:50) 3.89 (17:20) 0 0 0 0 0
14-04-2019 28.3 (18:00) 10.4 (00:00) 19.3 4.72 (17:30) 2.5 (02:00) 0 0 0 0 0
13-04-2019 25.2 (17:40) 9 (00:00) 17.1 9.17 (18:30) 5 (18:10) 0 0 0 0 0
12-04-2019 23.8 (18:00) 8.5 (00:00) 16.1 6.67 (19:40) 4.44 (19:40) 0 0 0 0 0
11-04-2019 21.8 (17:40) 5.7 (00:00) 13.7 6.94 (20:10) 3.89 (20:20) 0 0 0 0 0
10-04-2019 20 (16:50) 7.4 (00:00) 13.7 10.56 (18:40) 5.83 (16:50) 0 0 0 0 0
09-04-2019 18.5 (17:00) 8.6 (00:00) 13.6 10 (18:40) 5.56 (16:10) 0.2 0 0 0.2 0
08-04-2019 17.6 (13:30) 12.5 (00:00) 15.1 7.78 (15:30) 3.89 (17:20) 2.6 0 0.4 2.2 0
07-04-2019 15.7 (14:40) 9.6 (00:00) 12.7 8.61 (18:00) 3.89 (17:30) 4.8 0.8 0.2 3 0.8
06-04-2019 15.9 (14:30) 7.7 (00:00) 11.8 13.33 (17:00) 7.5 (16:20) 0.6 0 0 0.6 0
05-04-2019 14.7 (17:50) 9.8 (00:00) 12.3 11.67 (17:50) 7.78 (12:40) 12.4 2.2 10.2 0 0
04-04-2019 19.3 (16:40) 4.6 (00:00) 11.9 8.06 (18:00) 4.44 (23:10) 0 0 0 0 0
03-04-2019 21.7 (15:00) 10.4 (08:20) 16.1 9.72 (17:10) 6.11 (17:50) 0 0 0 0 0
02-04-2019 21.7 (18:40) 10.2 (00:00) 16 4.72 (12:40) 2.78 (03:00) 0 0 0 0 0
01-04-2019 19.9 (17:50) 12.7 (00:00) 16.3 9.44 (17:10) 5.28 (13:00) 4.4 0 3.4 1 0
31-03-2019 21 (15:40) 11.3 (00:00) 16.2 10.56 (19:00) 6.39 (19:00) 20.4 7 0 0.4 13
30-03-2019 23.9 (14:50) 8.7 (00:00) 16.3 12.5 (01:20) 7.5 (18:10) 0 0 0 0 0
29-03-2019 23.2 (14:10) 5.6 (00:00) 14.4 12.22 (22:40) 7.78 (22:40) 0 0 0 0 0
28-03-2019 22.7 (15:10) 5 (00:00) 13.9 10.56 (18:10) 7.5 (18:10) 0 0 0 0 0
27-03-2019 22.7 (15:10) 7.6 (00:00) 15.2 10.56 (22:00) 6.94 (19:20) 0 0 0 0 0
26-03-2019 25 (13:00) 10.6 (00:00) 17.8 15.56 (16:40) 9.44 (23:00) 0 0 0 0 0
25-03-2019 26.5 (16:20) 10.4 (00:00) 18.4 7.5 (16:50) 4.72 (17:00) 0 0 0 0 0
24-03-2019 23.4 (16:40) 7.1 (00:00) 15.2 11.39 (12:50) 5.28 (18:10) 0 0 0 0 0
23-03-2019 22.1 (16:00) 8.8 (00:00) 15.5 9.44 (15:30) 5.83 (17:50) 0 0 0 0 0
22-03-2019 22.8 (16:20) 5.7 (00:00) 14.2 8.06 (18:00) 4.44 (00:20) 0 0 0 0 0
21-03-2019 21.1 (15:10) 4.9 (00:00) 13 9.72 (13:20) 5 (18:50) 0 0 0 0 0
20-03-2019 20.7 (15:40) 5.9 (00:00) 13.3 8.89 (19:30) 5.28 (19:30) 0 0 0 0 0
19-03-2019 22.5 (16:10) 7.7 (00:00) 15.1 10 (15:40) 5 (16:30) 0 0 0 0 0

Gráficas

Temp. máximas Temp. mínimas Temp. medias Precipitaciones Rachas de viento máximas Velocidades máximas media en intervalos de 10 minutos

Datos horarios

Fecha y hora oficial Temperatura (ºC) Velocidad del viento (km/h) Dirección del viento Racha (km/h) Dirección de racha Precipitación (mm) Presión (hPa) Tendencia (hPa) Humedad (%)
2019-04-17 23:00:00 15.6 14 Sudeste 31 Sudeste 0 -- -- 64
2019-04-17 22:00:00 15.4 18 Sudeste 29 Sudeste 0 -- -- 68
2019-04-17 21:00:00 15.5 9 Sur 17 Sudeste 0 -- -- 68
2019-04-17 20:00:00 15.6 4 Oeste 24 Oeste 0 -- -- 67
2019-04-17 19:00:00 16 14 Oeste 36 Noroeste 0 -- -- 61
2019-04-17 18:00:00 19.8 22 Sur 36 Sur 0 -- -- 60
2019-04-17 17:00:00 20.3 19 Sur 34 Sur 0 -- -- 56
2019-04-17 16:00:00 20 21 Sur 38 Sur 0 -- -- 55
2019-04-17 15:00:00 20 24 Sur 37 Sudeste 0 -- -- 57
2019-04-17 14:00:00 20.4 22 Sur 42 Sudeste 0 -- -- 58
2019-04-17 13:00:00 20.3 22 Sudeste 35 Sur 0 -- -- 58
2019-04-17 12:00:00 19.5 16 Sur 31 Sudeste 0 -- -- 61
2019-04-17 11:00:00 19 22 Sudeste 43 Sudeste 0 -- -- 60
2019-04-17 10:00:00 18.3 21 Sudeste 41 Sudeste 0 -- -- 58
2019-04-17 09:00:00 17.2 23 Sudeste 38 Sudeste 0 -- -- 57
2019-04-17 08:00:00 15.5 17 Sudeste 26 Sudeste 0 -- -- 57
2019-04-17 07:00:00 11.7 5 Este 17 Sudeste 0 -- -- 76
2019-04-17 06:00:00 12.3 9 Este 15 Este 0 -- -- 74
2019-04-17 05:00:00 13.3 9 Este 19 Sudeste 0 -- -- 66
2019-04-17 04:00:00 12.8 2 Nordeste 9 Norte 0 -- -- 74
2019-04-17 03:00:00 14.4 4 Sudeste 19 Sudeste 0 -- -- 60
2019-04-17 02:00:00 16.1 10 Sudeste 21 Sudeste 0 -- -- 54
2019-04-17 01:00:00 16 4 Oeste 19 Sudeste 0 -- -- 52
2019-04-17 00:00:00 18.7 13 Sudeste 26 Sur 0 -- -- 41
2019-04-16 23:00:00 19 12 Sur 26 Sudeste 0 -- -- 40
2019-04-16 22:00:00 19.3 17 Sudeste 31 Sudeste 0 -- -- 44
2019-04-16 21:00:00 21.4 14 Sudeste 23 Sur 0 -- -- 42
2019-04-16 20:00:00 24.6 14 Sur 30 Sur 0 -- -- 33
2019-04-16 19:00:00 26.6 17 Sur 30 Sur 0 -- -- 35
2019-04-16 18:00:00 27.2 14 Sur 31 Sur 0 -- -- 34
2019-04-16 17:00:00 26.6 14 Sur 35 Sur 0 -- -- 33
2019-04-16 16:00:00 26 12 Sur 23 Sur 0 -- -- 35
2019-04-16 15:00:00 24.7 9 Sur 17 Sur 0 -- -- 36
2019-04-16 14:00:00 23.3 5 Sudeste 15 Este 0 -- -- 46
2019-04-16 13:00:00 21.5 5 Este 15 Nordeste 0 -- -- 56
2019-04-16 12:00:00 19.1 6 Nordeste 13 Norte 0 -- -- 69
2019-04-16 11:00:00 16.7 4 Noroeste 10 Oeste 0 -- -- 77
2019-04-16 10:00:00 15.4 4 Sur 10 Sudoeste 0 -- -- 85
2019-04-16 09:00:00 12.8 5 Sudeste 15 Sur 0 -- -- 93
2019-04-16 08:00:00 12.4 8 Sur 15 Sur 0 -- -- 93
2019-04-16 07:00:00 12.3 9 Sur 14 Sudeste 0 -- -- 93
2019-04-16 06:00:00 12.2 7 Sur 15 Sudeste 0 -- -- 93
2019-04-16 05:00:00 12 6 Sur 14 Sudeste 0 -- -- 92
2019-04-16 04:00:00 12.5 8 Sur 13 Sur 0 -- -- 91
2019-04-16 03:00:00 12.9 6 Sur 14 Sur 0 -- -- 89
2019-04-16 02:00:00 13.4 10 Sur 19 Sur 0 -- -- 87
2019-04-16 01:00:00 13.8 8 Sur 15 Sur 0 -- -- 85
2019-04-16 00:00:00 14.5 9 Sur 20 Sudoeste 0 -- -- 81
2019-04-15 23:00:00 15.1 11 Sur 17 Sudoeste 0 -- -- 80
2019-04-15 22:00:00 15.6 4 Sudoeste 17 Oeste 0 -- -- 76
2019-04-15 21:00:00 17.3 5 Sudoeste 23 Noroeste 0 -- -- 71
2019-04-15 20:00:00 19 12 Oeste 28 Oeste 0 -- -- 64
2019-04-15 19:00:00 21.6 10 Oeste 28 Sudoeste 0 -- -- 54
2019-04-15 18:00:00 23.1 10 Oeste 32 Sudoeste 0 -- -- 47
2019-04-15 17:00:00 24.8 13 Oeste 28 Sur 0 -- -- 32
2019-04-15 16:00:00 25.6 10 Sudoeste 32 Sudoeste 0 -- -- 29
2019-04-15 15:00:00 25.1 11 Sudoeste 31 Oeste 0 -- -- 41
2019-04-15 14:00:00 24.5 10 Oeste 26 Oeste 0 -- -- 38
2019-04-15 13:00:00 23.8 9 Sudoeste 19 Sudoeste 0 -- -- 37
2019-04-15 12:00:00 22.1 6 Sudoeste 17 Sur 0 -- -- 41
2019-04-15 11:00:00 20.9 7 Sudoeste 18 Oeste 0 -- -- 49
2019-04-15 10:00:00 17.6 5 Sur 10 Sudoeste 0 -- -- 64
2019-04-15 09:00:00 14.8 3 Sur 9 Sudoeste 0 -- -- 64
2019-04-15 08:00:00 14.1 3 Oeste 7 Sudoeste 0 -- -- 73
2019-04-15 07:00:00 12.9 4 Sur 10 Este 0 -- -- 82
2019-04-15 06:00:00 14.3 6 Este 15 Sudeste 0 -- -- 75
2019-04-15 05:00:00 17.3 10 Sudeste 15 Este 0 -- -- 66
2019-04-15 04:00:00 15.2 6 Este 9 Este 0 -- -- 78
2019-04-15 03:00:00 15.5 7 Sudeste 9 Sudeste 0 -- -- 78
2019-04-15 02:00:00 15.9 2 Sur 6 Sudeste 0 -- -- 75
2019-04-15 01:00:00 17.4 3 Sudoeste 5 Sur 0 -- -- 69
2019-04-15 00:00:00 18.7 3 Sur 6 Sudoeste 0 -- -- 66
2019-04-14 23:00:00 19.7 3 Sur 6 Sudoeste 0 -- -- 63
2019-04-14 22:00:00 21 3 Sudoeste 10 Oeste 0 -- -- 55
2019-04-14 21:00:00 22.7 4 Oeste 13 Oeste 0 -- -- 50
2019-04-14 20:00:00 25.7 4 Noroeste 10 Oeste 0 -- -- 45
2019-04-14 19:00:00 27.4 4 Norte 17 Noroeste 0 -- -- 38
2019-04-14 18:00:00 28.3 4 Noroeste 17 Norte 0 -- -- 37
2019-04-14 17:00:00 27.3 3 Nordeste 14 Norte 0 -- -- 37
2019-04-14 16:00:00 27.3 4 Sur 13 Noroeste 0 -- -- 37
2019-04-14 15:00:00 25.9 6 Noroeste 15 Nordeste 0 -- -- 41
2019-04-14 14:00:00 25.1 4 Nordeste 14 Norte 0 -- -- 39
2019-04-14 13:00:00 23.2 5 Norte 15 Nordeste 0 -- -- 44
2019-04-14 12:00:00 21 6 Nordeste 14 Nordeste 0 -- -- 54
2019-04-14 11:00:00 17.9 9 Norte 15 Norte 0 -- -- 59
2019-04-14 10:00:00 15.8 6 Nordeste 10 Este 0 -- -- 63
2019-04-14 09:00:00 11.6 0 Calma 8 Este 0 -- -- 78
2019-04-14 08:00:00 10.5 6 Este 9 Este 0 -- -- 81
2019-04-14 07:00:00 11.4 5 Este 8 Este 0 -- -- 78
2019-04-14 06:00:00 11.2 6 Este 9 Este 0 -- -- 82
2019-04-14 05:00:00 11.6 5 Este 9 Sudeste 0 -- -- 82
2019-04-14 04:00:00 12.4 5 Sudeste 10 Sudeste 0 -- -- 81
2019-04-14 03:00:00 13.2 4 Sur 12 Sur 0 -- -- 80
2019-04-14 02:00:00 13.6 9 Sudeste 14 Sudeste 0 -- -- 79
2019-04-14 01:00:00 13.8 5 Sudeste 11 Sudeste 0 -- -- 77
2019-04-14 00:00:00 14.1 3 Sur 8 Sur 0 -- -- 79
2019-04-13 23:00:00 15.2 3 Sur 9 Sudoeste 0 -- -- 75
2019-04-13 22:00:00 16.3 3 Sudoeste 10 Noroeste 0 -- -- 65
2019-04-13 21:00:00 18.3 5 Oeste 24 Noroeste 0 -- -- 50
2019-04-13 20:00:00 21.5 13 Oeste 21 Oeste 0 -- -- 37
2019-04-13 19:00:00 22.6 14 Oeste 33 Noroeste 0 -- -- 36
2019-04-13 18:00:00 23.8 18 Oeste 31 Noroeste 0 -- -- 34
2019-04-13 17:00:00 24.7 9 Noroeste 18 Oeste 0 -- -- 29
2019-04-13 16:00:00 24.5 8 Noroeste 20 Norte 0 -- -- 31
2019-04-13 15:00:00 23.7 6 Noroeste 16 Noroeste 0 -- -- 33
2019-04-13 14:00:00 23.2 5 Nordeste 12 Nordeste 0 -- -- 38
2019-04-13 13:00:00 21.5 3 Oeste 10 Este 0 -- -- 47
2019-04-13 12:00:00 19 3 Este 12 Noroeste 0 -- -- 59
2019-04-13 11:00:00 17.5 3 Sudeste 7 Sur 0 -- -- 59
2019-04-13 10:00:00 14.8 0 Calma 6 Sur 0 -- -- 70
2019-04-13 09:00:00 10.8 0 Calma 12 Sur 0 -- -- 85
2019-04-13 08:00:00 9.1 4 Sudeste 8 Sudeste 0 -- -- 90
2019-04-13 07:00:00 9.5 4 Sur 5 Sudoeste 0 -- -- 87
2019-04-13 06:00:00 10.9 3 Sur 14 Sudeste 0 -- -- 82
2019-04-13 05:00:00 11.3 5 Sur 9 Sur 0 -- -- 82
2019-04-13 04:00:00 11.8 5 Sudeste 9 Sudeste 0 -- -- 79
2019-04-13 03:00:00 12.5 6 Sur 13 Sudeste 0 -- -- 77
2019-04-13 02:00:00 12.4 6 Sudeste 13 Sudeste 0 -- -- 77
2019-04-13 01:00:00 13 5 Sur 13 Sur 0 -- -- 76
2019-04-13 00:00:00 13.2 4 Sudoeste 8 Sudoeste 0 -- -- 78
2019-04-12 23:00:00 14.3 2 Sudoeste 10 Oeste 0 -- -- 74
2019-04-12 22:00:00 15.7 4 Oeste 15 Oeste 0 -- -- 64
2019-04-12 21:00:00 18.2 5 Oeste 20 Oeste 0 -- -- 43
2019-04-12 20:00:00 20.9 13 Oeste 24 Oeste 0 -- -- 38
2019-04-12 19:00:00 23.4 9 Norte 21 Norte 0 -- -- 31
2019-04-12 18:00:00 23.8 6 Norte 16 Norte 0 -- -- 29
2019-04-12 17:00:00 23.1 6 Norte 18 Norte 0 -- -- 30
2019-04-12 16:00:00 22.6 7 Noroeste 21 Nordeste 0 -- -- 31
2019-04-12 15:00:00 22.1 4 Noroeste 15 Norte 0 -- -- 39
2019-04-12 14:00:00 21.1 5 Noroeste 14 Norte 0 -- -- 40
2019-04-12 13:00:00 19.9 5 Norte 14 Norte 0 -- -- 50
2019-04-12 12:00:00 18.2 5 Nordeste 10 Norte 0 -- -- 60
2019-04-12 11:00:00 16.1 3 Norte 7 Norte 0 -- -- 75
2019-04-12 10:00:00 13.8 3 Nordeste 6 Nordeste 0 -- -- 82
2019-04-12 09:00:00 9.8 2 Sudeste 5 Sudeste 0 -- -- 96
2019-04-12 08:00:00 9.1 4 Este 9 Este 0 -- -- 95
2019-04-12 07:00:00 8.7 3 Este 5 Este 0 -- -- 93
2019-04-12 06:00:00 9.6 2 Sudeste 5 Este 0 -- -- 92
2019-04-12 05:00:00 10.8 2 Este 10 Sudeste 0 -- -- 89
2019-04-12 04:00:00 12.5 6 Sur 15 Sur 0 -- -- 84
2019-04-12 03:00:00 12.7 9 Sudeste 15 Sudeste 0 -- -- 86
2019-04-12 02:00:00 12.9 9 Sur 18 Sur 0 -- -- 87
2019-04-12 01:00:00 13.1 11 Sur 21 Sur 0 -- -- 86
2019-04-12 00:00:00 13.2 10 Sudeste 16 Sudeste 0 -- -- 82
2019-04-11 23:00:00 13.7 6 Sur 12 Sur 0 -- -- 82
2019-04-11 22:00:00 14.5 4 Sudoeste 12 Sudoeste 0 -- -- 78
2019-04-11 21:00:00 16.3 4 Oeste 25 Oeste 0 -- -- 68
2019-04-11 20:00:00 20.2 8 Oeste 16 Oeste 0 -- -- 46
2019-04-11 19:00:00 21 6 Noroeste 16 Norte 0 -- -- 41
2019-04-11 18:00:00 21.5 9 Norte 18 Norte 0 -- -- 35
2019-04-11 17:00:00 21.4 8 Noroeste 20 Norte 0 -- -- 40
2019-04-11 16:00:00 20.7 7 Norte 21 Oeste 0 -- -- 43
2019-04-11 15:00:00 19.7 9 Norte 21 Noroeste 0 -- -- 48
2019-04-11 14:00:00 18.3 10 Noroeste 21 Noroeste 0 -- -- 54
2019-04-11 13:00:00 16.4 6 Noroeste 16 Noroeste 0 -- -- 59
2019-04-11 12:00:00 14.7 6 Noroeste 14 Norte 0 -- -- 66
2019-04-11 11:00:00 13 7 Norte 13 Noroeste 0 -- -- 71
2019-04-11 10:00:00 10.2 0 Calma 4 Noroeste 0 -- -- 92
2019-04-11 09:00:00 7.2 0 Calma 3 Sudoeste 0 -- -- 97
2019-04-11 08:00:00 5.8 0 Calma 3 Sudeste 0 -- -- 94
2019-04-11 07:00:00 6.3 0 Calma 4 Sur 0 -- -- 94
2019-04-11 06:00:00 6.9 4 Sur 5 Sudoeste 0 -- -- 92
2019-04-11 05:00:00 8.6 3 Sur 6 Sudoeste 0 -- -- 90
2019-04-11 04:00:00 9.2 0 Calma 8 Sudoeste 0 -- -- 86
2019-04-11 03:00:00 10.1 3 Oeste 8 Sudoeste 0 -- -- 83
2019-04-11 02:00:00 11.1 3 Oeste 8 Sudoeste 0 -- -- 77
2019-04-11 01:00:00 12.3 5 Oeste 12 Oeste 0 -- -- 65
2019-04-11 00:00:00 12.5 2 Oeste 10 Oeste 0 -- -- 68
2019-04-10 23:00:00 14.3 6 Noroeste 11 Noroeste 0 -- -- 57
2019-04-10 22:00:00 14.7 7 Noroeste 14 Noroeste 0 -- -- 58
2019-04-10 21:00:00 16.3 6 Oeste 21 Oeste 0 -- -- 59
2019-04-10 20:00:00 17.7 11 Oeste 35 Oeste 0 -- -- 62
2019-04-10 19:00:00 18.6 15 Oeste 38 Oeste 0 -- -- 57
2019-04-10 18:00:00 19.2 12 Oeste 35 Noroeste 0 -- -- 54
2019-04-10 17:00:00 19.9 18 Noroeste 34 Oeste 0 -- -- 41
2019-04-10 16:00:00 19.5 14 Noroeste 29 Noroeste 0 -- -- 42
2019-04-10 15:00:00 18 13 Noroeste 24 Noroeste 0 -- -- 52
2019-04-10 14:00:00 17.2 13 Noroeste 23 Noroeste 0 -- -- 53
2019-04-10 13:00:00 15.6 10 Noroeste 20 Noroeste 0 -- -- 59
2019-04-10 12:00:00 14.3 10 Noroeste 19 Noroeste 0 -- -- 65
2019-04-10 11:00:00 11.8 6 Noroeste 12 Oeste 0 -- -- 84
2019-04-10 10:00:00 10 6 Oeste 12 Oeste 0 -- -- 91
2019-04-10 09:00:00 8.1 3 Sudoeste 11 Oeste 0 -- -- 96
2019-04-10 08:00:00 7.5 4 Sur 7 Sudoeste 0 -- -- 95
2019-04-10 07:00:00 7.7 4 Sudoeste 9 Sudoeste 0 -- -- 94
2019-04-10 06:00:00 8.2 3 Sudoeste 8 Oeste 0 -- -- 93
2019-04-10 05:00:00 8.7 3 Oeste 6 Oeste 0 -- -- 91
2019-04-10 04:00:00 9.1 0 Calma 9 Oeste 0 -- -- 88
2019-04-10 03:00:00 10.5 5 Oeste 14 Noroeste 0 -- -- 83
2019-04-10 02:00:00 11.1 6 Noroeste 14 Oeste 0 -- -- 80
2019-04-10 01:00:00 11.6 5 Oeste 15 Oeste 0 -- -- 79
2019-04-10 00:00:00 12.4 6 Oeste 15 Oeste 0 -- -- 84
2019-04-09 23:00:00 12.5 6 Sudoeste 12 Sur 0 -- -- 87
2019-04-09 22:00:00 13.3 5 Sur 13 Sudoeste 0 -- -- 83
2019-04-09 21:00:00 14.6 5 Sudoeste 21 Oeste 0 -- -- 76
2019-04-09 20:00:00 16.2 9 Oeste 23 Oeste 0 -- -- 67
2019-04-09 19:00:00 17.7 8 Sudoeste 36 Oeste 0 -- -- 59
2019-04-09 18:00:00 18.3 12 Oeste 29 Noroeste 0 -- -- 55
2019-04-09 17:00:00 18.5 9 Oeste 34 Oeste 0 -- -- 56
2019-04-09 16:00:00 17.2 12 Oeste 31 Oeste 0 -- -- 57
2019-04-09 15:00:00 17.6 17 Oeste 33 Noroeste 0 -- -- 52
2019-04-09 14:00:00 16.5 16 Noroeste 31 Oeste 0.2 -- -- 61
2019-04-09 13:00:00 14.7 14 Noroeste 26 Noroeste 0 -- -- 77
2019-04-09 12:00:00 14.7 17 Noroeste 30 Noroeste 0 -- -- 72
2019-04-09 11:00:00 14.4 14 Noroeste 26 Oeste 0 -- -- 79
2019-04-09 10:00:00 12.8 6 Sudoeste 12 Sur 0 -- -- 87
2019-04-09 09:00:00 10.3 5 Sudoeste 10 Sudoeste 0 -- -- 92
2019-04-09 08:00:00 8.9 5 Sudoeste 15 Sudoeste 0 -- -- 91
2019-04-09 07:00:00 8.8 7 Sudoeste 9 Sudoeste 0 -- -- 89
2019-04-09 06:00:00 9 5 Sudoeste 10 Sudoeste 0 -- -- 89
2019-04-09 05:00:00 9.6 4 Sudoeste 15 Oeste 0 -- -- 85
2019-04-09 04:00:00 10.6 6 Oeste 15 Noroeste 0 -- -- 80
2019-04-09 03:00:00 11 5 Oeste 13 Oeste 0 -- -- 79
2019-04-09 02:00:00 11.5 5 Oeste 14 Oeste 0 -- -- 82
2019-04-09 01:00:00 12 5 Sudoeste 12 Sudoeste 0 -- -- 90
2019-04-09 00:00:00 12.5 5 Sudoeste 16 Sudoeste 0 -- -- 91
2019-04-08 23:00:00 12.8 7 Sudoeste 15 Sudoeste 0 -- -- 89
2019-04-08 22:00:00 13.8 7 Sudoeste 19 Sudoeste 0 -- -- 86
2019-04-08 21:00:00 14.8 5 Oeste 25 Sur 0 -- -- 84
2019-04-08 20:00:00 15.9 10 Sudoeste 26 Sur 0 -- -- 80
2019-04-08 19:00:00 16.7 8 Sudoeste 24 Sudoeste 0 -- -- 78
2019-04-08 18:00:00 16.5 9 Sudoeste 28 Sur 0 -- -- 82
2019-04-08 17:00:00 15.9 13 Sudoeste 28 Sur 0.2 -- -- 84
2019-04-08 16:00:00 15.9 9 Oeste 28 Sudoeste 0 -- -- 84
2019-04-08 15:00:00 15.1 11 Sudoeste 28 Sudoeste 2 -- -- 93
2019-04-08 14:00:00 17.2 8 Sudoeste 25 Sur 0 -- -- 78
2019-04-08 13:00:00 17.3 8 Sudoeste 23 Sudoeste 0 -- -- 80
2019-04-08 12:00:00 16.8 8 Sudoeste 24 Sudoeste 0 -- -- 78
2019-04-08 11:00:00 15.9 9 Sudoeste 24 Sudoeste 0 -- -- 88
2019-04-08 10:00:00 14.3 8 Sur 19 Sur 0.4 -- -- 97
2019-04-08 09:00:00 13.6 12 Sur 17 Sudoeste 0 -- -- 96
2019-04-08 08:00:00 13.2 6 Sur 13 Sur 0 -- -- 97
2019-04-08 07:00:00 13.5 6 Sudoeste 13 Sur 0 -- -- 96
2019-04-08 06:00:00 13.9 4 Sudoeste 18 Sudoeste 0 -- -- 95
2019-04-08 05:00:00 14.2 5 Sudoeste 21 Sudoeste 0 -- -- 95
2019-04-08 04:00:00 14.2 8 Sudoeste 18 Sur 0 -- -- 95
2019-04-08 03:00:00 14.1 10 Sur 19 Sudoeste 0 -- -- 95
2019-04-08 02:00:00 14.4 10 Sudoeste 20 Sudoeste 0 -- -- 95
2019-04-08 01:00:00 14.5 8 Sudoeste 21 Sudoeste 0 -- -- 95
2019-04-08 00:00:00 14.4 9 Sudoeste 19 Sudoeste 0 -- -- 96
2019-04-07 23:00:00 13.9 8 Sudoeste 23 Sudoeste 0 -- -- 95
2019-04-07 22:00:00 14.1 5 Sudoeste 18 Sudoeste 0 -- -- 96
2019-04-07 21:00:00 14.1 6 Sudoeste 23 Oeste 0.4 -- -- 94
2019-04-07 20:00:00 15 6 Oeste 24 Oeste 0.2 -- -- 94
2019-04-07 19:00:00 15 9 Sudoeste 29 Sudoeste 0.2 -- -- 95
2019-04-07 18:00:00 14.5 14 Sudoeste 31 Sudoeste 1 -- -- 95
2019-04-07 17:00:00 14 8 Sudoeste 23 Sudoeste 1.8 -- -- 93
2019-04-07 16:00:00 15.2 10 Sudoeste 23 Oeste 0 -- -- 75
2019-04-07 15:00:00 15.5 8 Sudoeste 25 Noroeste 0 -- -- 70
2019-04-07 14:00:00 15.1 5 Sudoeste 28 Oeste 0.2 -- -- 72
2019-04-07 13:00:00 15.3 8 Oeste 23 Noroeste 0 -- -- 69
2019-04-07 12:00:00 14.8 9 Oeste 19 Oeste 0 -- -- 73
2019-04-07 11:00:00 13.3 8 Oeste 17 Noroeste 0 -- -- 78
2019-04-07 10:00:00 12 3 Sudoeste 8 Sudoeste 0 -- -- 91
2019-04-07 09:00:00 10.4 6 Sudoeste 10 Sudoeste 0 -- -- 94
2019-04-07 08:00:00 9.9 5 Sur 13 Noroeste 0 -- -- 93
2019-04-07 07:00:00 10.2 10 Oeste 22 Noroeste 0.2 -- -- 92
2019-04-07 06:00:00 9.9 5 Sudoeste 19 Sudoeste 0.8 -- -- 90
2019-04-07 05:00:00 10 5 Sudoeste 10 Sudoeste 0 -- -- 85
2019-04-07 04:00:00 10.4 4 Sudoeste 12 Sudoeste 0 -- -- 82
2019-04-07 03:00:00 11 4 Sudoeste 12 Sudoeste 0 -- -- 79
2019-04-07 02:00:00 10.7 4 Sudoeste 12 Oeste 0 -- -- 80
2019-04-07 01:00:00 11 6 Sudoeste 19 Oeste 0 -- -- 77
2019-04-07 00:00:00 12 8 Oeste 20 Oeste 0 -- -- 75
2019-04-06 23:00:00 12.4 4 Oeste 23 Oeste 0 -- -- 77
2019-04-06 22:00:00 12.9 8 Oeste 32 Oeste 0 -- -- 75
2019-04-06 21:00:00 13.4 10 Oeste 35 Oeste 0 -- -- 73
2019-04-06 20:00:00 14.3 8 Oeste 46 Oeste 0 -- -- 68
2019-04-06 19:00:00 15.2 22 Oeste 44 Oeste 0 -- -- 62
2019-04-06 18:00:00 15.1 17 Oeste 44 Oeste 0.2 -- -- 62
2019-04-06 17:00:00 12.7 21 Oeste 48 Oeste 0.4 -- -- 78
2019-04-06 16:00:00 14.9 18 Oeste 36 Oeste 0 -- -- 59
2019-04-06 15:00:00 15.4 9 Oeste 33 Noroeste 0 -- -- 58
2019-04-06 14:00:00 15.6 16 Oeste 36 Noroeste 0 -- -- 59
2019-04-06 13:00:00 14.4 17 Oeste 39 Oeste 0 -- -- 59
2019-04-06 12:00:00 13.4 10 Oeste 22 Sudoeste 0 -- -- 67
2019-04-06 11:00:00 12.2 5 Oeste 15 Sur 0 -- -- 78
2019-04-06 10:00:00 11.1 8 Sur 12 Sur 0 -- -- 87
2019-04-06 09:00:00 8.9 6 Sur 10 Sudoeste 0 -- -- 91
2019-04-06 08:00:00 8.3 4 Sudoeste 23 Sur 0 -- -- 90
2019-04-06 07:00:00 7.9 5 Sur 8 Sur 0 -- -- 89
2019-04-06 06:00:00 8.2 7 Sudoeste 9 Sudoeste 0 -- -- 87
2019-04-06 05:00:00 8.1 7 Sudoeste 9 Sudoeste 0 -- -- 88
2019-04-06 04:00:00 8.3 6 Sudoeste 11 Sudoeste 0 -- -- 87
2019-04-06 03:00:00 8.4 6 Sudoeste 11 Sudoeste 0 -- -- 86
2019-04-06 02:00:00 8.3 5 Sur 11 Sudoeste 0 -- -- 84
2019-04-06 01:00:00 9.2 5 Sudoeste 21 Oeste 0 -- -- 76
2019-04-06 00:00:00 9.8 8 Oeste 17 Oeste 0 -- -- 73
2019-04-05 23:00:00 10.2 11 Oeste 23 Oeste 0 -- -- 75
2019-04-05 22:00:00 10.3 11 Oeste 40 Oeste 0 -- -- 72
2019-04-05 21:00:00 11.5 14 Oeste 27 Oeste 0 -- -- 71
2019-04-05 20:00:00 12.6 12 Oeste 36 Oeste 0 -- -- 65
2019-04-05 19:00:00 14.1 17 Oeste 37 Oeste 0 -- -- 58
2019-04-05 18:00:00 14.6 10 Oeste 42 Oeste 0 -- -- 57
2019-04-05 17:00:00 14.1 24 Oeste 41 Noroeste 0 -- -- 51
2019-04-05 16:00:00 14.2 23 Oeste 40 Oeste 0 -- -- 61
2019-04-05 15:00:00 14.1 14 Oeste 37 Oeste 0 -- -- 59
2019-04-05 14:00:00 13.2 22 Noroeste 36 Oeste 0 -- -- 63
2019-04-05 13:00:00 12.4 22 Noroeste 41 Noroeste 0 -- -- 73
2019-04-05 12:00:00 11 24 Noroeste 36 Noroeste 0 -- -- 86
2019-04-05 11:00:00 10.2 12 Noroeste 32 Noroeste 4.4 -- -- 95
2019-04-05 10:00:00 10.6 6 Sudoeste 30 Sur 1.4 -- -- 93
2019-04-05 09:00:00 10.9 14 Sur 26 Sur 0 -- -- 93
2019-04-05 08:00:00 10.5 12 Sur 36 Oeste 3.8 -- -- 94
2019-04-05 07:00:00 11 17 Sur 29 Sur 0.6 -- -- 95
2019-04-05 06:00:00 10.3 12 Sur 21 Sudoeste 1.4 -- -- 93
2019-04-05 05:00:00 10.6 6 Sur 12 Oeste 0.8 -- -- 89
2019-04-05 04:00:00 11.5 6 Sudoeste 16 Sudoeste 0 -- -- 76
2019-04-05 03:00:00 11.2 4 Sur 12 Sur 0 -- -- 73
2019-04-05 02:00:00 11.5 4 Sur 11 Sudoeste 0 -- -- 69
2019-04-05 01:00:00 11.4 5 Sudoeste 17 Sur 0 -- -- 69
2019-04-05 00:00:00 10.7 7 Sudoeste 24 Sur 0 -- -- 65
2019-04-04 23:00:00 11.3 15 Sur 25 Sur 0 -- -- 58
2019-04-04 22:00:00 12.2 15 Sur 24 Sur 0 -- -- 55
2019-04-04 21:00:00 13.4 8 Sudoeste 19 Sudoeste 0 -- -- 55
2019-04-04 20:00:00 15.4 9 Oeste 25 Sudoeste 0 -- -- 40
2019-04-04 19:00:00 18 6 Oeste 24 Oeste 0 -- -- 30
2019-04-04 18:00:00 17.8 13 Oeste 29 Oeste 0 -- -- 26
2019-04-04 17:00:00 19 10 Sudoeste 28 Oeste 0 -- -- 33
2019-04-04 16:00:00 18.6 15 Oeste 28 Oeste 0 -- -- 35
2019-04-04 15:00:00 17.7 12 Oeste 23 Noroeste 0 -- -- 35
2019-04-04 14:00:00 16.8 11 Oeste 23 Oeste 0 -- -- 35
2019-04-04 13:00:00 15.6 9 Noroeste 15 Noroeste 0 -- -- 43
2019-04-04 12:00:00 13.6 4 Noroeste 13 Noroeste 0 -- -- 49
2019-04-04 11:00:00 12 4 Norte 9 Noroeste 0 -- -- 59
2019-04-04 10:00:00 9 4 Noroeste 6 Oeste 0 -- -- 83
2019-04-04 09:00:00 5.6 0 Calma 2 Sudeste 0 -- -- 94
2019-04-04 08:00:00 4.9 0 Calma 5 Sudoeste 0 -- -- 92
2019-04-04 07:00:00 5.5 4 Sur 6 Sur 0 -- -- 92
2019-04-04 06:00:00 5.9 2 Sudeste 3 Sudoeste 0 -- -- 89
2019-04-04 05:00:00 7.5 0 Calma 7 Oeste 0 -- -- 82
2019-04-04 04:00:00 8.4 3 Oeste 5 Oeste 0 -- -- 77
2019-04-04 03:00:00 9.6 5 Noroeste 11 Noroeste 0 -- -- 73
2019-04-04 02:00:00 10.8 2 Noroeste 10 Oeste 0 -- -- 68
2019-04-04 01:00:00 12.5 6 Noroeste 13 Oeste 0 -- -- 60
2019-04-04 00:00:00 13.4 8 Oeste 15 Oeste 0 -- -- 62
2019-04-03 23:00:00 13.3 3 Sudoeste 9 Sudoeste 0 -- -- 74
2019-04-03 22:00:00 14.5 5 Sur 10 Sur 0 -- -- 69
2019-04-03 21:00:00 16.7 6 Oeste 17 Oeste 0 -- -- 48
2019-04-03 20:00:00 19.4 7 Oeste 25 Oeste 0 -- -- 46
2019-04-03 19:00:00 20.4 15 Oeste 32 Oeste 0 -- -- 41
2019-04-03 18:00:00 21.1 22 Noroeste 35 Oeste 0 -- -- 42
2019-04-03 17:00:00 21.6 19 Noroeste 32 Oeste 0 -- -- 42
2019-04-03 16:00:00 21.2 17 Oeste 28 Oeste 0 -- -- 41
2019-04-03 15:00:00 21.7 9 Oeste 25 Noroeste 0 -- -- 43
2019-04-03 14:00:00 20.6 5 Noroeste 17 Oeste 0 -- -- 54
2019-04-03 13:00:00 19.3 3 Oeste 10 Norte 0 -- -- 62
2019-04-03 12:00:00 17.3 6 Norte 12 Norte 0 -- -- 74
2019-04-03 11:00:00 15.9 5 Norte 10 Norte 0 -- -- 83
2019-04-03 10:00:00 13.7 4 Norte 8 Norte 0 -- -- 90
2019-04-03 09:00:00 10.8 3 Este 9 Este 0 -- -- 94
2019-04-03 08:00:00 10.6 7 Este 10 Este 0 -- -- 94
2019-04-03 07:00:00 11 2 Sudeste 6 Sudeste 0 -- -- 94
2019-04-03 06:00:00 11.7 3 Sudeste 6 Sudeste 0 -- -- 94
2019-04-03 05:00:00 12 4 Sur 8 Sudeste 0 -- -- 94
2019-04-03 04:00:00 12.3 4 Sur 9 Sudeste 0 -- -- 93
2019-04-03 03:00:00 12.5 4 Sur 9 Sudeste 0 -- -- 93
2019-04-03 02:00:00 13.1 5 Sur 7 Sudoeste 0 -- -- 92
2019-04-03 01:00:00 13.6 3 Sudoeste 6 Sudoeste 0 -- -- 89
2019-04-03 00:00:00 14 2 Oeste 7 Sudoeste 0 -- -- 86
2019-04-02 23:00:00 15 3 Sur 8 Oeste 0 -- -- 82
2019-04-02 22:00:00 16.2 4 Sudoeste 10 Oeste 0 -- -- 79
2019-04-02 21:00:00 17.8 0 Calma 10 Oeste 0 -- -- 72
2019-04-02 20:00:00 19.5 0 Calma 6 Norte 0 -- -- 61
2019-04-02 19:00:00 21.1 4 Norte 12 Noroeste 0 -- -- 52
2019-04-02 18:00:00 21.5 4 Noroeste 13 Noroeste 0 -- -- 52
2019-04-02 17:00:00 20.9 6 Noroeste 13 Noroeste 0 -- -- 50
2019-04-02 16:00:00 20.3 8 Norte 14 Norte 0 -- -- 59
2019-04-02 15:00:00 19.7 5 Norte 14 Nordeste 0 -- -- 64
2019-04-02 14:00:00 19.1 4 Este 15 Nordeste 0 -- -- 69
2019-04-02 13:00:00 17.8 7 Nordeste 17 Nordeste 0 -- -- 75
2019-04-02 12:00:00 17.2 6 Este 14 Nordeste 0 -- -- 76
2019-04-02 11:00:00 15.1 4 Este 10 Sudeste 0 -- -- 90
2019-04-02 10:00:00 12.5 4 Este 9 Este 0 -- -- 98
2019-04-02 09:00:00 10.8 5 Este 9 Este 0 -- -- 98
2019-04-02 08:00:00 10.4 3 Sudeste 7 Sur 0 -- -- 97
2019-04-02 07:00:00 10.6 3 Sudeste 6 Sudeste 0 -- -- 96
2019-04-02 06:00:00 11.2 3 Sur 10 Sudeste 0 -- -- 96
2019-04-02 05:00:00 11 3 Sur 10 Sudeste 0 -- -- 96
2019-04-02 04:00:00 11.7 9 Sudeste 14 Sudeste 0 -- -- 95
2019-04-02 03:00:00 11.8 10 Sudeste 13 Sudeste 0 -- -- 95
2019-04-02 02:00:00 12.6 8 Sur 13 Sur 0 -- -- 95
2019-04-02 01:00:00 12.4 7 Sudeste 10 Sur 0 -- -- 93
2019-04-02 00:00:00 12.7 5 Sur 9 Sur 0 -- -- 91
2019-04-01 23:00:00 13.1 4 Sudeste 7 Sur 0 -- -- 89
2019-04-01 22:00:00 14.5 4 Sudoeste 12 Sudoeste 0 -- -- 83
2019-04-01 21:00:00 15.7 5 Sudoeste 17 Sudoeste 0 -- -- 78
2019-04-01 20:00:00 17.4 7 Sudoeste 32 Sur 0 -- -- 70
2019-04-01 19:00:00 18.4 13 Sudoeste 28 Sur 0 -- -- 66
2019-04-01 18:00:00 19.3 13 Sudoeste 34 Sudoeste 0 -- -- 62
2019-04-01 17:00:00 19.6 12 Sudoeste 30 Sur 0 -- -- 64
2019-04-01 16:00:00 19.1 15 Sudoeste 30 Sudoeste 0 -- -- 61
2019-04-01 15:00:00 16.4 12 Sur 31 Sur 1 -- -- 83
2019-04-01 14:00:00 18 15 Sur 29 Sur 0 -- -- 71
2019-04-01 13:00:00 17 19 Sudeste 32 Sudeste 0 -- -- 80
2019-04-01 12:00:00 15.7 17 Sur 29 Sur 0 -- -- 87
2019-04-01 11:00:00 13.4 10 Sudeste 23 Sudeste 2.8 -- -- 93
2019-04-01 10:00:00 13.7 10 Sudeste 18 Sudeste 0 -- -- 90
2019-04-01 09:00:00 13.1 13 Sur 22 Sudeste 0.6 -- -- 91
2019-04-01 08:00:00 12.8 11 Sudeste 19 Sudeste 0 -- -- 92
2019-04-01 07:00:00 13.3 9 Sur 21 Sur 0 -- -- 91
2019-04-01 06:00:00 13.3 9 Sudeste 21 Sudeste 0 -- -- 92
2019-04-01 05:00:00 13.6 8 Sudeste 19 Sur 0 -- -- 92
2019-04-01 04:00:00 13.8 10 Sur 22 Sur 0 -- -- 90
2019-04-01 03:00:00 14 17 Sur 23 Sur 0 -- -- 92
2019-04-01 02:00:00 14 9 Sur 17 Sur 0 -- -- 93
2019-04-01 01:00:00 13.9 8 Sudeste 15 Sur 0 -- -- 93
2019-04-01 00:00:00 13.5 5 Sur 16 Sudeste 0 -- -- 91
2019-03-31 23:00:00 13 9 Sudeste 16 Sudeste 0 -- -- 88
2019-03-31 22:00:00 12.8 9 Sudeste 15 Sudeste 0 -- -- 87
2019-03-31 21:00:00 12.2 6 Este 23 Norte 1.8 -- -- 89
2019-03-31 20:00:00 11.7 15 Norte 37 Noroeste 7.2 -- -- 91
2019-03-31 19:00:00 14.7 23 Norte 38 Norte 4 -- -- 84
2019-03-31 18:00:00 17.5 19 Sur 29 Sur 0 -- -- 66
2019-03-31 17:00:00 19.7 3 Sudeste 10 Noroeste 0.4 -- -- 62
2019-03-31 16:00:00 20.2 8 Norte 12 Noroeste 0 -- -- 56
2019-03-31 15:00:00 20.3 3 Noroeste 8 Oeste 0 -- -- 55
2019-03-31 14:00:00 20.3 3 Noroeste 12 Oeste 0 -- -- 61
2019-03-31 13:00:00 19.2 4 Norte 9 Sur 0 -- -- 63
2019-03-31 12:00:00 17.5 3 Sudoeste 10 Sudeste 0 -- -- 69
2019-03-31 11:00:00 16 4 Sudeste 8 Sudeste 0 -- -- 78
2019-03-31 10:00:00 13.2 2 Noroeste 5 Noroeste 0 -- -- 92
2019-03-31 09:00:00 12.1 0 Calma 11 Sudeste 0 -- -- 91
2019-03-31 08:00:00 12.6 5 Sur 9 Sur 0 -- -- 92
2019-03-31 07:00:00 12.9 0 Calma 8 Sur 0 -- -- 93
2019-03-31 06:00:00 12.9 2 Sudeste 6 Sudeste 0 -- -- 92
2019-03-31 05:00:00 13.3 2 Sur 8 Este 7 -- -- 90
2019-03-31 03:00:00 13.9 0 Calma 11 Noroeste 0 -- -- 76
2019-03-31 01:00:00 14 0 Calma 10 Sudeste 0 -- -- 72
2019-03-31 00:00:00 15.2 9 Sudeste 20 Sudeste 0 -- -- 68
2019-03-30 23:00:00 15.4 9 Norte 22 Sudeste 0 -- -- 66
2019-03-30 22:00:00 15.8 8 Sur 23 Sudeste 0 -- -- 65
2019-03-30 21:00:00 15.7 16 Sudeste 35 Sudeste 0 -- -- 65
2019-03-30 20:00:00 16 22 Sudeste 42 Sudeste 0 -- -- 66
2019-03-30 19:00:00 16.9 22 Sudeste 42 Sudeste 0 -- -- 62
2019-03-30 18:00:00 18.3 23 Sur 40 Sudeste 0 -- -- 57
2019-03-30 17:00:00 20.8 22 Sur 37 Sur 0 -- -- 49
2019-03-30 16:00:00 23.4 14 Sudoeste 24 Sur 0 -- -- 44
2019-03-30 15:00:00 23.6 8 Sur 25 Este 0 -- -- 40
2019-03-30 14:00:00 23.1 5 Este 24 Sur 0 -- -- 40
2019-03-30 13:00:00 22.4 10 Sudeste 20 Sudeste 0 -- -- 42
2019-03-30 12:00:00 20.9 8 Sur 15 Sur 0 -- -- 44
2019-03-30 11:00:00 18 4 Norte 12 Norte 0 -- -- 51
2019-03-30 10:00:00 15.8 4 Norte 9 Norte 0 -- -- 56
2019-03-30 09:00:00 12.3 3 Norte 6 Oeste 0 -- -- 72
2019-03-30 08:00:00 9.4 2 Este 6 Este 0 -- -- 78
2019-03-30 07:00:00 9.5 7 Este 9 Sudeste 0 -- -- 77
2019-03-30 06:00:00 9.3 6 Sudeste 11 Sudeste 0 -- -- 78
2019-03-30 05:00:00 9.5 4 Este 8 Nordeste 0 -- -- 75
2019-03-30 04:00:00 10.5 5 Este 11 Este 0 -- -- 73
2019-03-30 03:00:00 11.9 6 Este 30 Sudeste 0 -- -- 67
2019-03-30 02:00:00 14 21 Sudeste 45 Sudeste 0 -- -- 63
2019-03-30 01:00:00 14.3 22 Sudeste 41 Este 0 -- -- 61
2019-03-30 00:00:00 14.2 18 Sudeste 40 Sudeste 0 -- -- 61
2019-03-29 23:00:00 14.3 26 Sudeste 44 Sudeste 0 -- -- 60
2019-03-29 22:00:00 14.3 21 Sudeste 36 Sudeste 0 -- -- 63
2019-03-29 21:00:00 14.7 19 Sudeste 34 Sur 0 -- -- 63
2019-03-29 20:00:00 16.2 19 Sudeste 33 Sudeste 0 -- -- 56
2019-03-29 19:00:00 17.5 20 Sudeste 30 Sur 0 -- -- 54
2019-03-29 18:00:00 19 16 Sudeste 28 Sur 0 -- -- 52
2019-03-29 17:00:00 19.1 13 Sur 29 Sur 0 -- -- 50
2019-03-29 16:00:00 20.2 19 Sur 31 Sudeste 0 -- -- 48
2019-03-29 15:00:00 21.6 16 Sur 27 Sur 0 -- -- 44
2019-03-29 14:00:00 23 9 Sur 21 Sur 0 -- -- 39
2019-03-29 13:00:00 21.8 12 Sudeste 24 Sudeste 0 -- -- 39
2019-03-29 12:00:00 20.5 6 Este 17 Sudeste 0 -- -- 40
2019-03-29 11:00:00 18.4 3 Este 10 Sudoeste 0 -- -- 42
2019-03-29 10:00:00 15.7 3 Norte 12 Nordeste 0 -- -- 40
2019-03-29 09:00:00 13.6 4 Nordeste 9 Este 0 -- -- 51
2019-03-29 08:00:00 10 6 Sudeste 17 Sudeste 0 -- -- 58
2019-03-29 07:00:00 9.7 9 Sudeste 24 Sudeste 0 -- -- 49
2019-03-29 06:00:00 8.9 8 Este 21 Sudeste 0 -- -- 53
2019-03-29 05:00:00 12.1 16 Sudeste 29 Sudeste 0 -- -- 52
2019-03-29 04:00:00 6.7 4 Sudeste 9 Este 0 -- -- 60
2019-03-29 03:00:00 5.8 2 Sur 4 Sur 0 -- -- 64
2019-03-29 02:00:00 6.6 0 Calma 4 Este 0 -- -- 60
2019-03-29 01:00:00 7.9 2 Sudeste 5 Sudeste 0 -- -- 54
2019-03-29 00:00:00 9.8 4 Este 11 Sudeste 0 -- -- 46
2019-03-28 23:00:00 12.5 6 Sudeste 18 Sudeste 0 -- -- 36
2019-03-28 22:00:00 13.6 12 Sudeste 18 Sudeste 0 -- -- 38
2019-03-28 21:00:00 14.2 10 Sudeste 20 Sudeste 0 -- -- 40
2019-03-28 20:00:00 15.8 10 Sudeste 29 Sudeste 0 -- -- 36
2019-03-28 19:00:00 18.1 20 Sudeste 38 Sudeste 0 -- -- 32
2019-03-28 18:00:00 20.3 22 Sudeste 33 Sudeste 0 -- -- 31
2019-03-28 17:00:00 22.1 16 Sur 29 Sur 0 -- -- 33
2019-03-28 16:00:00 22.5 15 Sur 28 Sudeste 0 -- -- 32
2019-03-28 15:00:00 22.4 10 Sur 29 Sur 0 -- -- 32
2019-03-28 14:00:00 22.1 9 Sudeste 23 Sudeste 0 -- -- 29
2019-03-28 13:00:00 20.6 5 Nordeste 21 Sudeste 0 -- -- 33
2019-03-28 12:00:00 19.3 6 Sudeste 14 Sur 0 -- -- 30
2019-03-28 11:00:00 17.6 5 Nordeste 10 Nordeste 0 -- -- 36
2019-03-28 10:00:00 15.2 2 Este 12 Sudeste 0 -- -- 45
2019-03-28 09:00:00 11.2 6 Este 13 Sudeste 0 -- -- 59
2019-03-28 08:00:00 7.5 5 Sudeste 12 Este 0 -- -- 73
2019-03-28 07:00:00 5.2 6 Este 10 Este 0 -- -- 82
2019-03-28 06:00:00 5.8 4 Sur 6 Sur 0 -- -- 81
2019-03-28 05:00:00 7.1 4 Sudoeste 7 Sur 0 -- -- 81
2019-03-28 04:00:00 7.8 0 Calma 7 Sudoeste 0 -- -- 75
2019-03-28 03:00:00 8.3 4 Sudoeste 11 Sudoeste 0 -- -- 72
2019-03-28 02:00:00 9.4 2 Nordeste 7 Este 0 -- -- 68
2019-03-28 01:00:00 11.1 3 Nordeste 24 Sudeste 0 -- -- 64
2019-03-28 00:00:00 13.2 13 Sudeste 24 Sudeste 0 -- -- 59
2019-03-27 23:00:00 13.5 18 Sudeste 38 Sur 0 -- -- 56
2019-03-27 22:00:00 14 25 Sudeste 38 Sudeste 0 -- -- 51
2019-03-27 21:00:00 14.7 22 Sudeste 35 Sudeste 0 -- -- 43
2019-03-27 20:00:00 15.7 22 Sudeste 36 Sudeste 0 -- -- 42
2019-03-27 19:00:00 17.6 23 Sudeste 35 Sudeste 0 -- -- 35
2019-03-27 18:00:00 19.6 18 Sudeste 30 Sudeste 0 -- -- 31
2019-03-27 17:00:00 21.1 18 Sudeste 30 Sudeste 0 -- -- 28
2019-03-27 16:00:00 22.2 17 Sudeste 34 Sudeste 0 -- -- 24
2019-03-27 15:00:00 22.4 8 Sur 24 Sur 0 -- -- 26
2019-03-27 14:00:00 22.5 14 Sudeste 33 Sudeste 0 -- -- 28
2019-03-27 13:00:00 21 10 Sudeste 27 Sudeste 0 -- -- 30
2019-03-27 12:00:00 20 13 Sudeste 24 Sudeste 0 -- -- 32
2019-03-27 11:00:00 18.4 19 Sudeste 31 Sudeste 0 -- -- 36
2019-03-27 10:00:00 16.8 12 Este 27 Este 0 -- -- 43
2019-03-27 09:00:00 13 7 Este 16 Nordeste 0 -- -- 54
2019-03-27 08:00:00 8.1 4 Este 9 Este 0 -- -- 70
2019-03-27 07:00:00 8.3 4 Este 8 Este 0 -- -- 69
2019-03-27 06:00:00 8.6 5 Este 7 Sur 0 -- -- 72
2019-03-27 05:00:00 9.1 3 Norte 5 Noroeste 0 -- -- 69
2019-03-27 04:00:00 10.2 3 Norte 9 Sudoeste 0 -- -- 68
2019-03-27 03:00:00 11.4 3 Sudeste 8 Este 0 -- -- 63
2019-03-27 02:00:00 13.8 3 Este 26 Sudeste 0 -- -- 53
2019-03-27 01:00:00 15 14 Sudeste 31 Sudeste 0 -- -- 51
2019-03-27 00:00:00 15.8 22 Sudeste 44 Sudeste 0 -- -- 60
2019-03-26 23:00:00 16.4 34 Sudeste 50 Sudeste 0 -- -- 59
2019-03-26 22:00:00 17 28 Sudeste 48 Sudeste 0 -- -- 56
2019-03-26 21:00:00 17 25 Sudeste 43 Sudeste 0 -- -- 54
2019-03-26 20:00:00 18 16 Sudeste 30 Sur 0 -- -- 41
2019-03-26 19:00:00 19.3 19 Sudeste 41 Sudeste 0 -- -- 41
2019-03-26 18:00:00 20.1 29 Sudeste 44 Sudeste 0 -- -- 39
2019-03-26 17:00:00 22 34 Sudeste 56 Sudeste 0 -- -- 35
2019-03-26 16:00:00 22.4 27 Sudeste 49 Sudeste 0 -- -- 34
2019-03-26 15:00:00 22.3 24 Sudeste 42 Sudeste 0 -- -- 36
2019-03-26 14:00:00 24.1 24 Sudeste 42 Sudeste 0 -- -- 37
2019-03-26 13:00:00 25 13 Sudeste 22 Sur 0 -- -- 36
2019-03-26 12:00:00 22.4 5 Noroeste 10 Norte 0 -- -- 39
2019-03-26 11:00:00 20.2 4 Norte 9 Norte 0 -- -- 47
2019-03-26 10:00:00 18.2 2 Noroeste 6 Norte 0 -- -- 53
2019-03-26 09:00:00 15.2 2 Este 10 Este 0 -- -- 59
2019-03-26 08:00:00 12.5 6 Este 10 Este 0 -- -- 63
2019-03-26 07:00:00 11.1 5 Este 9 Norte 0 -- -- 69
2019-03-26 06:00:00 10.9 5 Este 6 Este 0 -- -- 71
2019-03-26 05:00:00 11.2 3 Sudeste 7 Este 0 -- -- 69
2019-03-26 04:00:00 12.2 0 Calma 8 Sudoeste 0 -- -- 67
2019-03-26 03:00:00 12.7 4 Este 8 Nordeste 0 -- -- 63
2019-03-26 02:00:00 13.6 3 Este 12 Norte 0 -- -- 61
2019-03-26 01:00:00 13.8 2 Nordeste 12 Sudeste 0 -- -- 61
2019-03-26 00:00:00 15.9 5 Sudeste 14 Sudeste 0 -- -- 52
2019-03-25 23:00:00 16.5 11 Sudeste 19 Sudeste 0 -- -- 52
2019-03-25 22:00:00 15.7 10 Sudeste 19 Sudeste 0 -- -- 57
2019-03-25 21:00:00 16.8 10 Sudeste 16 Sudeste 0 -- -- 55
2019-03-25 20:00:00 18.9 12 Sudeste 23 Sudeste 0 -- -- 50
2019-03-25 19:00:00 21.2 16 Sudeste 23 Sudeste 0 -- -- 45
2019-03-25 18:00:00 23.6 13 Sudeste 24 Sudeste 0 -- -- 41
2019-03-25 17:00:00 25 17 Sur 27 Sudoeste 0 -- -- 39
2019-03-25 16:00:00 26 4 Norte 26 Sudeste 0 -- -- 33
2019-03-25 15:00:00 25.2 4 Noroeste 21 Sudeste 0 -- -- 35
2019-03-25 14:00:00 24.7 9 Sudeste 21 Sudeste 0 -- -- 37
2019-03-25 13:00:00 23.3 7 Sur 20 Sur 0 -- -- 39
2019-03-25 12:00:00 22.4 9 Sudeste 20 Este 0 -- -- 41
2019-03-25 11:00:00 21 9 Este 24 Este 0 -- -- 43
2019-03-25 10:00:00 18.6 9 Este 22 Nordeste 0 -- -- 49
2019-03-25 09:00:00 14.4 6 Este 14 Este 0 -- -- 66
2019-03-25 08:00:00 11.4 4 Este 10 Este 0 -- -- 74
2019-03-25 07:00:00 11 5 Este 14 Este 0 -- -- 74
2019-03-25 06:00:00 11.4 6 Este 17 Este 0 -- -- 70
2019-03-25 05:00:00 10.5 6 Este 14 Este 0 -- -- 73
2019-03-25 04:00:00 10.9 5 Este 12 Este 0 -- -- 69
2019-03-25 03:00:00 11.2 6 Este 10 Sur 0 -- -- 67
2019-03-25 02:00:00 11.7 5 Este 9 Este 0 -- -- 65
2019-03-25 01:00:00 12.2 5 Este 12 Nordeste 0 -- -- 63
2019-03-25 00:00:00 12.3 6 Este 12 Este 0 -- -- 64
2019-03-24 23:00:00 13.4 5 Este 11 Sudeste 0 -- -- 60
2019-03-24 22:00:00 14.7 6 Sudeste 17 Sudeste 0 -- -- 57
2019-03-24 21:00:00 16.5 10 Sudeste 21 Este 0 -- -- 53
2019-03-24 20:00:00 18 9 Sudeste 24 Sudeste 0 -- -- 49
2019-03-24 19:00:00 20.3 14 Sudeste 27 Sudeste 0 -- -- 44
2019-03-24 18:00:00 22.1 15 Sudeste 28 Sudeste 0 -- -- 40
2019-03-24 17:00:00 22.8 12 Sudeste 27 Sudeste 0 -- -- 41
2019-03-24 16:00:00 22.5 4 Este 13 Este 0 -- -- 43
2019-03-24 15:00:00 22.2 3 Sudeste 15 Norte 0 -- -- 43
2019-03-24 14:00:00 22.8 8 Nordeste 27 Sur 0 -- -- 43
2019-03-24 13:00:00 22.2 5 Sudeste 41 Sudeste 0 -- -- 46
2019-03-24 12:00:00 21 9 Sudeste 20 Sudeste 0 -- -- 47
2019-03-24 11:00:00 18.8 4 Norte 11 Nordeste 0 -- -- 50
2019-03-24 10:00:00 16.2 3 Norte 9 Nordeste 0 -- -- 56
2019-03-24 09:00:00 12.7 3 Nordeste 8 Este 0 -- -- 70
2019-03-24 08:00:00 8.2 0 Calma 8 Este 0 -- -- 80
2019-03-24 07:00:00 8.7 2 Norte 12 Sudeste 0 -- -- 78
2019-03-24 06:00:00 7.2 3 Este 9 Este 0 -- -- 80
2019-03-24 05:00:00 7.6 3 Sudeste 5 Sudeste 0 -- -- 78
2019-03-24 04:00:00 8.1 0 Calma 8 Este 0 -- -- 76
2019-03-24 03:00:00 9.2 2 Sudeste 9 Sudoeste 0 -- -- 72
2019-03-24 02:00:00 9.4 5 Este 8 Este 0 -- -- 70
2019-03-24 01:00:00 10.2 0 Calma 5 Norte 0 -- -- 68
2019-03-24 00:00:00 12.3 0 Calma 16 Sudeste 0 -- -- 62
2019-03-23 23:00:00 13.4 5 Sudeste 23 Sudeste 0 -- -- 55
2019-03-23 22:00:00 14.8 15 Sudeste 25 Sudeste 0 -- -- 49
2019-03-23 21:00:00 15.7 15 Sudeste 31 Este 0 -- -- 48
2019-03-23 20:00:00 16.9 15 Sudeste 33 Sudeste 0 -- -- 46
2019-03-23 19:00:00 18.4 17 Sudeste 33 Sudeste 0 -- -- 42
2019-03-23 18:00:00 20.1 19 Sudeste 33 Sudeste 0 -- -- 38
2019-03-23 17:00:00 21.4 15 Este 33 Este 0 -- -- 36
2019-03-23 16:00:00 22.1 16 Este 34 Este 0 -- -- 37
2019-03-23 15:00:00 20.8 14 Este 32 Este 0 -- -- 40
2019-03-23 14:00:00 20.4 9 Este 32 Sudeste 0 -- -- 41
2019-03-23 13:00:00 21 12 Este 27 Sudeste 0 -- -- 40
2019-03-23 12:00:00 21.3 11 Sudeste 30 Este 0 -- -- 40
2019-03-23 11:00:00 19.7 17 Sudeste 32 Sudeste 0 -- -- 44
2019-03-23 10:00:00 17.4 9 Este 18 Este 0 -- -- 55
2019-03-23 09:00:00 13.6 5 Este 18 Este 0 -- -- 68
2019-03-23 08:00:00 11.6 7 Este 20 Este 0 -- -- 73
2019-03-23 07:00:00 11.1 7 Este 17 Este 0 -- -- 74
2019-03-23 06:00:00 10.6 6 Este 17 Este 0 -- -- 75
2019-03-23 05:00:00 9.3 5 Este 12 Este 0 -- -- 77
2019-03-23 04:00:00 9.4 3 Este 10 Nordeste 0 -- -- 72
2019-03-23 03:00:00 9.5 4 Este 8 Sudeste 0 -- -- 69
2019-03-23 02:00:00 10.6 4 Sudeste 11 Este 0 -- -- 62
2019-03-23 01:00:00 11.9 5 Sudeste 26 Sudeste 0 -- -- 57
2019-03-23 00:00:00 12.7 15 Sudeste 25 Sudeste 0 -- -- 54
2019-03-22 23:00:00 13.3 15 Sudeste 23 Sudeste 0 -- -- 51
2019-03-22 22:00:00 13.8 12 Sudeste 17 Sudeste 0 -- -- 52
2019-03-22 21:00:00 14 8 Sudeste 13 Sudeste 0 -- -- 53
2019-03-22 20:00:00 16 8 Sudeste 21 Sudeste 0 -- -- 47
2019-03-22 19:00:00 19.1 11 Este 24 Este 0 -- -- 39
2019-03-22 18:00:00 21 12 Este 29 Este 0 -- -- 35
2019-03-22 17:00:00 22.6 10 Sudeste 16 Este 0 -- -- 34
2019-03-22 16:00:00 22.7 6 Sudeste 18 Este 0 -- -- 33
2019-03-22 15:00:00 21.9 9 Sudeste 18 Este 0 -- -- 34
2019-03-22 14:00:00 21 5 Sur 19 Sur 0 -- -- 35
2019-03-22 13:00:00 19.8 4 Sur 17 Norte 0 -- -- 37
2019-03-22 12:00:00 18.9 7 Este 20 Este 0 -- -- 37
2019-03-22 11:00:00 17.4 8 Este 24 Este 0 -- -- 45
2019-03-22 10:00:00 14.1 9 Este 22 Este 0 -- -- 62
2019-03-22 09:00:00 10.5 6 Este 15 Este 0 -- -- 74
2019-03-22 08:00:00 7.7 3 Este 10 Este 0 -- -- 80
2019-03-22 07:00:00 6.8 4 Este 8 Sudeste 0 -- -- 82
2019-03-22 06:00:00 7 4 Este 8 Este 0 -- -- 81
2019-03-22 05:00:00 6.7 4 Este 8 Este 0 -- -- 81
2019-03-22 04:00:00 6.2 3 Este 7 Nordeste 0 -- -- 77
2019-03-22 03:00:00 7.5 2 Noroeste 6 Noroeste 0 -- -- 72
2019-03-22 02:00:00 8.7 4 Sudeste 20 Sudeste 0 -- -- 66
2019-03-22 01:00:00 11.9 14 Sudeste 26 Sudeste 0 -- -- 56
2019-03-22 00:00:00 11.9 14 Sudeste 25 Sudeste 0 -- -- 56
2019-03-21 23:00:00 12 16 Sudeste 25 Sudeste 0 -- -- 55
2019-03-21 22:00:00 12.3 17 Sudeste 25 Sudeste 0 -- -- 57
2019-03-21 21:00:00 13.3 14 Sudeste 28 Sudeste 0 -- -- 54
2019-03-21 20:00:00 14.7 16 Sudeste 26 Sur 0 -- -- 48
2019-03-21 19:00:00 17 15 Sudeste 24 Sudeste 0 -- -- 39
2019-03-21 18:00:00 19.4 13 Sudeste 30 Sudeste 0 -- -- 28
2019-03-21 17:00:00 20.5 13 Este 29 Este 0 -- -- 27
2019-03-21 16:00:00 20.9 10 Este 24 Nordeste 0 -- -- 26
2019-03-21 15:00:00 20.8 14 Nordeste 30 Sudeste 0 -- -- 25
2019-03-21 14:00:00 20.4 13 Este 35 Este 0 -- -- 27
2019-03-21 13:00:00 19.3 14 Este 29 Este 0 -- -- 29
2019-03-21 12:00:00 18.4 11 Este 25 Este 0 -- -- 35
2019-03-21 11:00:00 16.5 11 Este 24 Este 0 -- -- 42
2019-03-21 10:00:00 13.5 8 Este 18 Este 0 -- -- 61
2019-03-21 09:00:00 9.7 5 Este 15 Este 0 -- -- 76
2019-03-21 08:00:00 6.7 4 Este 9 Nordeste 0 -- -- 85
2019-03-21 07:00:00 6.2 4 Este 11 Este 0 -- -- 85
2019-03-21 06:00:00 5.1 3 Este 6 Nordeste 0 -- -- 86
2019-03-21 05:00:00 5.7 3 Sudeste 5 Este 0 -- -- 80
2019-03-21 04:00:00 6.6 0 Calma 6 Nordeste 0 -- -- 79
2019-03-21 03:00:00 7.8 3 Este 10 Norte 0 -- -- 74
2019-03-21 02:00:00 8.5 4 Este 12 Norte 0 -- -- 72
2019-03-21 01:00:00 10.7 3 Noroeste 22 Sudeste 0 -- -- 64
2019-03-21 00:00:00 11.5 13 Sudeste 22 Sudeste 0 -- -- 62
2019-03-20 23:00:00 11.3 11 Sudeste 18 Sudeste 0 -- -- 60
2019-03-20 22:00:00 11.7 7 Sudeste 17 Sudeste 0 -- -- 60
2019-03-20 21:00:00 13.1 11 Sudeste 22 Sudeste 0 -- -- 56
2019-03-20 20:00:00 14.9 15 Sudeste 32 Sudeste 0 -- -- 51
2019-03-20 19:00:00 16.6 12 Sur 23 Sur 0 -- -- 47
2019-03-20 18:00:00 19.4 12 Sur 19 Sur 0 -- -- 42
2019-03-20 17:00:00 17.9 6 Sudeste 22 Sudeste 0 -- -- 41
2019-03-20 16:00:00 19.1 13 Sur 21 Sur 0 -- -- 40
2019-03-20 15:00:00 18.7 9 Sudeste 24 Sur 0 -- -- 43
2019-03-20 14:00:00 19.6 3 Este 13 Nordeste 0 -- -- 40
2019-03-20 13:00:00 19 4 Noroeste 14 Noroeste 0 -- -- 45
2019-03-20 12:00:00 17.1 4 Oeste 14 Noroeste 0 -- -- 51
2019-03-20 11:00:00 15.8 4 Norte 13 Norte 0 -- -- 58
2019-03-20 10:00:00 13.8 2 Nordeste 8 Nordeste 0 -- -- 65
2019-03-20 09:00:00 9.9 2 Sur 5 Sur 0 -- -- 79
2019-03-20 08:00:00 7.1 0 Calma 10 Este 0 -- -- 82
2019-03-20 07:00:00 6.1 8 Este 9 Este 0 -- -- 81
2019-03-20 06:00:00 6.9 3 Nordeste 7 Nordeste 0 -- -- 77
2019-03-20 05:00:00 7.6 0 Calma 5 Nordeste 0 -- -- 73
2019-03-20 04:00:00 10.3 3 Sudeste 18 Sur 0 -- -- 62
2019-03-20 03:00:00 12.5 12 Sudeste 21 Sudeste 0 -- -- 54
2019-03-20 02:00:00 12.4 13 Sudeste 22 Sudeste 0 -- -- 47
2019-03-20 01:00:00 11.6 8 Sudeste 13 Este 0 -- -- 46
2019-03-20 00:00:00 12.3 7 Este 12 Este 0 -- -- 44
2019-03-19 23:00:00 13.2 4 Nordeste 19 Este 0 -- -- 43
2019-03-19 22:00:00 14.1 6 Este 15 Este 0 -- -- 40
2019-03-19 21:00:00 14.4 7 Nordeste 18 Este 0 -- -- 42
2019-03-19 20:00:00 17 6 Este 18 Nordeste 0 -- -- 37
2019-03-19 19:00:00 19.7 8 Nordeste 26 Nordeste 0 -- -- 33
2019-03-19 18:00:00 21.4 15 Nordeste 31 Nordeste 0 -- -- 29
2019-03-19 17:00:00 22.3 15 Nordeste 33 Este 0 -- -- 27
2019-03-19 16:00:00 22.2 17 Nordeste 36 Nordeste 0 -- -- 27
2019-03-19 15:00:00 22.3 15 Nordeste 32 Nordeste 0 -- -- 26
2019-03-19 14:00:00 21.2 17 Nordeste 30 Nordeste 0 -- -- 31
2019-03-19 13:00:00 20.1 14 Nordeste 33 Nordeste 0 -- -- 45
2019-03-19 12:00:00 18.2 12 Nordeste 21 Nordeste 0 -- -- 65
2019-03-19 11:00:00 16.4 9 Nordeste 18 Norte 0 -- -- 75
2019-03-19 10:00:00 14.3 4 Nordeste 10 Este 0 -- -- 89
2019-03-19 09:00:00 11.5 0 Calma 8 Este 0 -- -- 97
2019-03-19 08:00:00 9.4 5 Este 6 Este 0 -- -- 96
2019-03-19 07:00:00 7.9 2 Este 4 Este 0 -- -- 94
2019-03-19 06:00:00 8.1 2 Este 6 Este 0 -- -- 93
2019-03-19 05:00:00 8.6 3 Sudeste 4 Sudeste 0 -- -- 93
2019-03-19 04:00:00 8.9 0 Calma 5 Este 0 -- -- 92
2019-03-19 03:00:00 10.5 2 Sur 5 Sur 0 -- -- 93
2019-03-19 02:00:00 11 0 Calma 6 Sur 0 -- -- 91
2019-03-19 01:00:00 11.4 5 Sur 6 Noroeste 0 -- -- 89
2019-03-19 00:00:00 11.9 0 Calma 8 Oeste 0 -- -- 84